Impacts TAF Board INFO
FOR SITUATIONAL AWARENESS. NOT TO BE USED FOR FLIGHT PLANNING PURPOSES.
IDs:

KBWI - Baltimore-Washington, MD, US

Issued at 2049 UTC 24 Feb 2018
Updated at 2153 UTC 24 Feb 2018
Potential Impact None Slight Moderate High
Time2054Z 24/22Z 24/23Z 25/00Z 25/01Z 25/02Z 25/03Z 25/04Z 25/05Z 25/06Z 25/07Z 25/08Z 25/09Z 25/10Z>>
Type OBS PRVL PRVL PRVL PRVL PRVL PRVL PRVL PRVL PRVL PRVL PRVL PRVL PRVL
VIS 10 5 5 3 3 3 3 3 2 2 2 1 1 1
CIG 23 6 6 8 8 8 8 8 8 8 8 3 3 3
Cover OVC OVC OVC OVC OVC OVC OVC OVC OVC OVC OVC OVC OVC OVC
FltCat MVFR IFR IFR IFR IFR IFR IFR IFR IFR IFR IFR LIFR LIFR LIFR
WX -RA -SHRA BR -SHRA BR BR BR BR BR BR -SHRA BR -SHRA BR -SHRA BR -SHRA BR -SHRA BR -SHRA BR
WDir 70 70 70 50 50 50 50 50 70 70 70 80 80 80
WSpd 5 6 6 6 6 6 6 6 5 5 5 4 4 4
WGst 16 -- -- -- -- -- -- -- -- -- -- -- -- --

Raw TAF
KBWI 242049Z 2421/2524 04004KT 3SM -SHRA BR OVC005
  FM242200 07006KT 5SM -SHRA BR OVC006
  FM250000 05006KT 3SM BR OVC008
  FM250500 07005KT 2SM -SHRA BR OVC008
  FM250800 08004KT 1SM -SHRA BR OVC003
  FM251300 12005KT 1/2SM -SHRA FG OVC003
  FM251500 18006KT 2SM -SHRA OVC003 WS020/22035KT
  FM251800 22010G17KT P6SM -SHRA OVC015
  FM252200 27007KT P6SM BKN050


Raw METAR
KBWI 242054Z 07005G16KT 10SM -RA FEW013 OVC023 09/08 A3014 RMK AO2 SLP207 P0001 60001 T00940083 53004
KBWI 241954Z 06009KT 8SM -RA FEW009 SCT013 OVC025 10/08 A3012 RMK AO2 RAB35 SLP199 P0000 T01000083
KBWI 241921Z 04007KT 10SM FEW009 BKN025 OVC040 10/08 A3014 RMK AO2 T01000083
KBWI 241905Z 04007KT 9SM SCT009 BKN015 OVC021 10/09 A3013 RMK AO2 T01000089
KBWI 241854Z 04008KT 8SM SCT009 OVC013 10/09 A3012 RMK AO2 RAE22 SLP200 P0000 T01000089

METAR Board
Radar Display
Forecast Discussion

FOR SITUATIONAL AWARENESS. NOT TO BE USED FOR FLIGHT PLANNING PURPOSES.